createdAt,value
2022-10-17T00:02:11.785Z,10.56
2022-10-17T00:04:38.526Z,10.53
2022-10-17T00:07:05.240Z,10.51
2022-10-17T00:09:31.966Z,10.47
2022-10-17T00:11:58.654Z,10.45
2022-10-17T00:14:25.432Z,10.42
2022-10-17T00:16:52.128Z,10.40
2022-10-17T00:19:18.805Z,10.37
2022-10-17T00:21:45.537Z,10.33
2022-10-17T00:24:12.217Z,10.28
2022-10-17T00:26:38.927Z,10.24
2022-10-17T00:29:06.084Z,10.21
2022-10-17T00:31:32.879Z,10.19
2022-10-17T00:33:59.578Z,10.15
2022-10-17T00:36:26.818Z,10.12
2022-10-17T00:38:56.961Z,10.09
2022-10-17T00:41:27.704Z,10.05
2022-10-17T00:44:00.603Z,10.12
2022-10-17T00:46:36.642Z,10.14
2022-10-17T00:49:09.157Z,10.14
2022-10-17T00:51:43.318Z,10.13
2022-10-17T00:54:11.622Z,10.11
2022-10-17T00:56:40.638Z,10.10
2022-10-17T00:59:12.768Z,10.09
2022-10-17T01:01:48.388Z,10.06
2022-10-17T01:04:16.229Z,10.03
2022-10-17T01:06:42.878Z,10.00
2022-10-17T01:09:09.659Z,9.96
2022-10-17T01:11:54.492Z,9.92
2022-10-17T01:14:41.178Z,9.86
2022-10-17T01:17:18.778Z,9.80
2022-10-17T01:20:00.898Z,9.76
2022-10-17T01:22:47.531Z,9.71
2022-10-17T01:25:38.385Z,9.67
2022-10-17T01:28:27.304Z,9.62
2022-10-17T01:31:08.885Z,9.58
2022-10-17T01:33:50.920Z,9.53
2022-10-17T01:36:39.668Z,9.51
2022-10-17T01:39:36.835Z,9.56
2022-10-17T01:42:23.568Z,9.58
2022-10-17T01:45:01.342Z,9.56
2022-10-17T01:47:32.680Z,9.52
2022-10-17T01:50:20.260Z,9.52
2022-10-17T01:52:53.367Z,9.50
2022-10-17T01:55:28.703Z,9.48
2022-10-17T01:58:01.065Z,9.45
2022-10-17T02:00:28.445Z,9.41
2022-10-17T02:03:00.948Z,9.38
2022-10-17T02:05:39.778Z,9.32
2022-10-17T02:08:07.675Z,9.29
2022-10-17T02:10:49.675Z,9.25
2022-10-17T02:13:35.447Z,9.22
2022-10-17T02:16:14.478Z,9.18
2022-10-17T02:18:51.369Z,9.14
2022-10-17T02:21:41.973Z,9.12
2022-10-17T02:24:08.652Z,9.09
2022-10-17T02:26:48.805Z,9.07
2022-10-17T02:29:19.617Z,9.15
2022-10-17T02:31:53.266Z,9.19
2022-10-17T02:34:28.149Z,9.20
2022-10-17T02:37:00.632Z,9.17
2022-10-17T02:39:29.833Z,9.15
2022-10-17T02:41:59.288Z,9.15
2022-10-17T02:44:28.549Z,9.13
2022-10-17T02:47:04.067Z,9.13
2022-10-17T02:49:39.002Z,9.12
2022-10-17T02:52:17.283Z,9.10
2022-10-17T02:54:52.086Z,9.08
2022-10-17T02:57:31.424Z,9.04
2022-10-17T03:00:01.500Z,9.01
2022-10-17T03:02:28.938Z,8.97
2022-10-17T03:04:56.724Z,8.94
2022-10-17T03:07:23.465Z,8.90
2022-10-17T03:09:50.115Z,8.87
2022-10-17T03:12:16.820Z,8.83
2022-10-17T03:14:43.501Z,8.77
2022-10-17T03:17:10.241Z,8.74
2022-10-17T03:19:37.056Z,8.79
2022-10-17T03:22:03.776Z,8.81
2022-10-17T03:24:30.517Z,8.83
2022-10-17T03:26:57.272Z,8.80
2022-10-17T03:29:24.067Z,8.77
2022-10-17T03:31:50.823Z,8.76
2022-10-17T03:34:19.048Z,8.74
2022-10-17T03:36:46.337Z,8.72
2022-10-17T03:39:13.176Z,8.70
2022-10-17T03:41:39.986Z,8.68
2022-10-17T03:44:06.748Z,8.63
2022-10-17T03:46:33.589Z,8.61
2022-10-17T03:49:00.456Z,8.58
2022-10-17T03:51:27.192Z,8.54
2022-10-17T03:53:54.041Z,8.52
2022-10-17T03:56:25.848Z,8.49
2022-10-17T03:58:52.859Z,8.45
2022-10-17T04:01:20.338Z,8.41
2022-10-17T04:03:55.008Z,8.38
2022-10-17T04:06:22.664Z,8.35
2022-10-17T04:08:49.825Z,8.42
2022-10-17T04:11:19.479Z,8.44
2022-10-17T04:13:46.484Z,8.46
2022-10-17T04:16:15.839Z,8.43
2022-10-17T04:18:43.888Z,8.40
2022-10-17T04:21:12.572Z,8.38
2022-10-17T04:23:40.209Z,8.37
2022-10-17T04:26:07.530Z,8.34
2022-10-17T04:28:36.019Z,8.33
2022-10-17T04:31:08.466Z,8.31
2022-10-17T04:33:35.350Z,8.28
2022-10-17T04:36:05.267Z,8.25
2022-10-17T04:38:32.995Z,8.22
2022-10-17T04:41:05.843Z,8.20
2022-10-17T04:43:35.034Z,8.17
2022-10-17T04:46:04.321Z,8.14
2022-10-17T04:48:31.517Z,8.10
2022-10-17T04:51:07.289Z,8.06
2022-10-17T04:53:35.623Z,8.06
2022-10-17T04:56:08.772Z,8.13
2022-10-17T04:58:35.584Z,8.15
2022-10-17T05:01:11.225Z,8.15
2022-10-17T05:03:38.378Z,8.12
2022-10-17T05:06:11.051Z,8.10
2022-10-17T05:08:38.318Z,8.07
2022-10-17T05:11:06.108Z,8.06
2022-10-17T05:13:33.426Z,8.05
2022-10-17T05:16:01.451Z,8.04
2022-10-17T05:18:29.349Z,8.02
2022-10-17T05:20:56.354Z,8.00
2022-10-17T05:23:23.128Z,7.98
2022-10-17T05:25:54.861Z,7.95
2022-10-17T05:28:22.295Z,7.92
2022-10-17T05:30:49.644Z,7.91
2022-10-17T05:33:16.580Z,7.90
2022-10-17T05:35:43.324Z,7.90
2022-10-17T05:38:10.059Z,7.98
2022-10-17T05:40:38.717Z,8.03
2022-10-17T05:43:05.766Z,8.06
2022-10-17T05:45:32.799Z,8.05
2022-10-17T05:47:59.514Z,8.06
2022-10-17T05:50:26.320Z,8.08
2022-10-17T05:52:54.613Z,8.08
2022-10-17T05:55:21.964Z,8.09
2022-10-17T05:57:49.608Z,8.09
2022-10-17T06:00:16.755Z,8.09
2022-10-17T06:02:46.164Z,8.08
2022-10-17T06:05:14.029Z,8.08
2022-10-17T06:07:41.313Z,8.08
2022-10-17T06:10:08.411Z,8.08
2022-10-17T06:12:35.284Z,8.09
2022-10-17T06:15:01.994Z,8.17
2022-10-17T06:17:30.529Z,8.21
2022-10-17T06:19:57.802Z,8.25
2022-10-17T06:22:24.696Z,8.25
2022-10-17T06:24:52.905Z,8.27
2022-10-17T06:27:20.984Z,8.30
2022-10-17T06:29:48.511Z,8.32
2022-10-17T06:32:15.376Z,8.34
2022-10-17T06:34:42.361Z,8.35
2022-10-17T06:37:09.075Z,8.37
2022-10-17T06:39:36.260Z,8.37
2022-10-17T06:42:04.232Z,8.37
2022-10-17T06:44:32.161Z,8.37
2022-10-17T06:47:00.197Z,8.46
2022-10-17T06:49:28.240Z,8.51
2022-10-17T06:51:55.119Z,8.54
2022-10-17T06:54:21.843Z,8.55
2022-10-17T06:56:48.596Z,8.57
2022-10-17T06:59:15.988Z,8.58
2022-10-17T07:01:46.154Z,8.58
2022-10-17T07:04:14.736Z,8.58
2022-10-17T07:06:41.504Z,8.58
2022-10-17T07:09:08.288Z,8.58
2022-10-17T07:11:37.988Z,8.60
2022-10-17T07:14:04.766Z,8.68
2022-10-17T07:16:31.614Z,8.71
2022-10-17T07:18:58.322Z,8.74
2022-10-17T07:21:25.541Z,8.75
2022-10-17T07:23:52.275Z,8.77
2022-10-17T07:26:20.149Z,8.78
2022-10-17T07:28:51.344Z,8.81
2022-10-17T07:31:19.970Z,8.83
2022-10-17T07:36:18.928Z,8.83
2022-10-17T07:38:45.709Z,8.85
2022-10-17T07:41:17.791Z,8.94
2022-10-17T07:43:47.894Z,8.99
2022-10-17T07:46:14.594Z,9.04
2022-10-17T07:48:41.403Z,9.05
2022-10-17T07:51:10.412Z,9.07
2022-10-17T07:53:39.080Z,9.11
2022-10-17T07:56:07.557Z,9.14
2022-10-17T07:58:35.534Z,9.17
2022-10-17T08:01:10.867Z,9.18
2022-10-17T08:03:45.528Z,9.20
2022-10-17T08:06:12.955Z,9.23
2022-10-17T08:08:39.744Z,9.33
2022-10-17T08:11:11.956Z,9.40
2022-10-17T08:13:40.458Z,9.46
2022-10-17T08:16:09.886Z,9.50
2022-10-17T08:18:38.975Z,9.55
2022-10-17T08:21:09.443Z,9.59
2022-10-17T08:23:37.157Z,9.63
2022-10-17T08:26:06.747Z,9.67
2022-10-17T08:28:36.470Z,9.71
2022-10-17T08:31:09.371Z,9.76
2022-10-17T08:33:36.218Z,9.90
2022-10-17T08:36:04.477Z,9.98
2022-10-17T08:38:35.443Z,10.06
2022-10-17T08:41:30.444Z,10.10
2022-10-17T08:44:22.355Z,10.15
2022-10-17T08:46:54.186Z,10.23
2022-10-17T08:49:48.810Z,10.28
2022-10-17T08:52:45.236Z,10.36
2022-10-17T08:55:42.902Z,10.42
2022-10-17T08:58:28.292Z,10.50
2022-10-17T09:01:28.736Z,10.64
2022-10-17T09:04:21.009Z,10.73
2022-10-17T09:06:58.931Z,10.81
2022-10-17T09:09:32.282Z,10.88
2022-10-17T09:12:23.497Z,10.93
2022-10-17T09:15:28.197Z,11.00
2022-10-17T09:18:10.198Z,11.06
2022-10-17T09:20:42.130Z,11.13
2022-10-17T09:23:59.458Z,11.17
2022-10-17T09:26:39.629Z,11.23
2022-10-17T09:29:17.892Z,11.29
2022-10-17T09:31:52.634Z,11.36
2022-10-17T09:34:21.081Z,11.50
2022-10-17T09:36:50.032Z,11.59
2022-10-17T09:39:24.991Z,11.69
2022-10-17T09:41:57.328Z,11.75
2022-10-17T09:44:35.380Z,11.80
2022-10-17T09:47:20.627Z,11.86
2022-10-17T09:49:49.678Z,11.94
2022-10-17T09:52:33.582Z,12.02
2022-10-17T09:55:06.175Z,12.10
2022-10-17T09:57:53.649Z,12.15
2022-10-17T10:00:27.070Z,12.22
2022-10-17T10:03:24.425Z,12.30
2022-10-17T10:06:21.978Z,12.39
2022-10-17T10:08:58.815Z,12.48
2022-10-17T10:11:52.105Z,12.59
2022-10-17T10:14:39.858Z,12.79
2022-10-17T10:17:44.947Z,12.93
2022-10-17T10:20:33.833Z,13.06
2022-10-17T10:23:14.998Z,13.15
2022-10-17T10:26:00.003Z,13.26
2022-10-17T10:28:29.907Z,13.34
2022-10-17T10:33:46.949Z,13.48
2022-10-17T10:36:16.334Z,13.54
2022-10-17T10:38:51.588Z,13.60
2022-10-17T10:41:18.352Z,13.68
2022-10-17T10:43:51.858Z,13.77
2022-10-17T10:46:22.168Z,13.86
2022-10-17T10:48:55.257Z,13.96
2022-10-17T10:51:30.749Z,14.05
2022-10-17T10:54:13.084Z,14.23
2022-10-17T10:56:55.587Z,14.39
2022-10-17T10:59:36.481Z,14.51
2022-10-17T11:02:25.390Z,14.59
2022-10-17T11:04:58.131Z,14.70
2022-10-17T11:07:33.581Z,14.79
2022-10-17T11:10:10.355Z,14.88
2022-10-17T11:12:42.387Z,14.98
2022-10-17T11:15:19.688Z,15.07
2022-10-17T11:17:51.857Z,15.16
2022-10-17T11:20:29.967Z,15.23
2022-10-17T11:23:10.155Z,15.30
2022-10-17T11:25:41.248Z,15.39
2022-10-17T11:28:19.637Z,15.46
2022-10-17T11:30:52.520Z,15.54
2022-10-17T11:33:27.852Z,15.61
2022-10-17T11:35:58.945Z,15.70
2022-10-17T11:38:43.588Z,15.78
2022-10-17T11:41:15.707Z,15.88
2022-10-17T11:44:01.972Z,15.97
2022-10-17T11:46:29.695Z,16.07
2022-10-17T11:49:00.248Z,16.16
2022-10-17T11:54:16.567Z,16.30
2022-10-17T11:56:52.570Z,16.38
2022-10-17T11:59:38.047Z,16.45
2022-10-17T12:02:16.936Z,16.52
2022-10-17T12:05:02.575Z,16.60
2022-10-17T12:07:51.622Z,16.67
2022-10-17T12:10:30.127Z,16.76
2022-10-17T12:12:56.861Z,16.84
2022-10-17T12:15:23.581Z,16.91
2022-10-17T12:18:03.125Z,16.98
2022-10-17T12:20:36.002Z,17.07
2022-10-17T12:23:06.176Z,17.17
2022-10-17T12:28:15.213Z,17.29
2022-10-17T12:30:54.541Z,17.35
2022-10-17T12:33:29.174Z,17.40
2022-10-17T12:36:17.759Z,17.43
2022-10-17T12:39:13.912Z,17.47
2022-10-17T12:41:40.835Z,17.50
2022-10-17T12:44:13.582Z,17.56
2022-10-17T12:46:51.919Z,17.62
2022-10-17T12:49:23.978Z,17.65
2022-10-17T12:52:29.909Z,17.68
2022-10-17T12:55:12.997Z,17.69
2022-10-17T12:58:05.164Z,17.71
2022-10-17T13:01:11.829Z,17.74
2022-10-17T13:03:44.748Z,17.74
2022-10-17T13:06:20.948Z,17.77
2022-10-17T13:08:56.848Z,17.81
2022-10-17T13:11:29.292Z,17.83
2022-10-17T13:13:59.636Z,17.84
2022-10-17T13:16:36.930Z,17.84
2022-10-17T13:19:13.334Z,17.84
2022-10-17T13:21:40.156Z,17.86
2022-10-17T13:24:42.586Z,17.87
2022-10-17T13:27:26.899Z,17.87
2022-10-17T13:29:56.544Z,17.86
2022-10-17T13:32:25.488Z,17.87
2022-10-17T13:35:07.348Z,17.89
2022-10-17T13:37:35.337Z,17.89
2022-10-17T13:40:16.262Z,17.89
2022-10-17T13:42:51.025Z,17.90
2022-10-17T13:45:37.145Z,17.89
2022-10-17T13:48:10.859Z,17.90
2022-10-17T13:50:45.292Z,17.89
2022-10-17T13:53:20.395Z,17.91
2022-10-17T13:56:28.383Z,17.92
2022-10-17T13:59:08.363Z,17.93
2022-10-17T14:01:35.355Z,17.95
2022-10-17T14:04:09.000Z,17.95
2022-10-17T14:06:46.215Z,17.96
2022-10-17T14:09:31.014Z,17.94
2022-10-17T14:12:16.838Z,17.93
2022-10-17T14:15:09.678Z,17.92
2022-10-17T14:17:38.741Z,17.91
2022-10-17T14:20:34.486Z,17.91
2022-10-17T14:23:20.891Z,17.91
2022-10-17T14:25:41.456Z,17.89
2022-10-17T14:28:11.913Z,17.87
2022-10-17T14:31:03.197Z,17.82
2022-10-17T14:33:32.149Z,17.76
2022-10-17T14:36:01.986Z,17.72
2022-10-17T14:38:30.447Z,17.68
2022-10-17T14:41:30.589Z,17.64
2022-10-17T14:44:00.090Z,17.57
2022-10-17T14:46:27.934Z,17.50
2022-10-17T14:49:05.777Z,17.44
2022-10-17T14:51:44.701Z,17.37
2022-10-17T14:54:26.133Z,17.31
2022-10-17T14:56:55.110Z,17.26
2022-10-17T14:59:51.985Z,17.20
2022-10-17T15:02:13.530Z,17.14
2022-10-17T15:04:40.537Z,17.08
2022-10-17T15:07:07.455Z,17.03
2022-10-17T15:09:34.174Z,16.98
2022-10-17T15:12:05.131Z,16.92
2022-10-17T15:14:31.802Z,16.88
2022-10-17T15:16:58.596Z,16.83
2022-10-17T15:19:25.300Z,16.77
2022-10-17T15:21:51.982Z,16.73
2022-10-17T15:24:18.832Z,16.69
2022-10-17T15:26:45.630Z,16.64
2022-10-17T15:29:16.334Z,16.61
2022-10-17T15:31:43.317Z,16.55
2022-10-17T15:34:10.038Z,16.52
2022-10-17T15:36:41.421Z,16.47
2022-10-17T15:39:10.435Z,16.43
2022-10-17T15:41:37.201Z,16.38
2022-10-17T15:44:04.066Z,16.35
2022-10-17T15:46:34.205Z,16.30
2022-10-17T15:51:53.030Z,16.23
2022-10-17T15:54:22.135Z,16.18
2022-10-17T15:56:54.603Z,16.14
2022-10-17T15:59:26.223Z,16.09
2022-10-17T16:01:52.943Z,16.04
2022-10-17T16:04:19.786Z,15.99
2022-10-17T16:06:46.571Z,15.94
2022-10-17T16:09:13.421Z,15.90
2022-10-17T16:11:42.928Z,15.86
2022-10-17T16:14:16.908Z,15.81
2022-10-17T16:16:44.891Z,15.77
2022-10-17T16:19:12.681Z,15.73
2022-10-17T16:21:41.043Z,15.69
2022-10-17T16:24:11.606Z,15.66
2022-10-17T16:26:41.342Z,15.62
2022-10-17T16:29:09.543Z,15.59
2022-10-17T16:31:40.142Z,15.55
2022-10-17T16:34:07.928Z,15.51
2022-10-17T16:36:35.357Z,15.47
2022-10-17T16:39:02.140Z,15.44
2022-10-17T16:41:31.737Z,15.41
2022-10-17T16:44:01.861Z,15.39
2022-10-17T16:46:30.844Z,15.36
2022-10-17T16:48:58.124Z,15.32
2022-10-17T16:51:25.565Z,15.29
2022-10-17T16:53:54.570Z,15.25
2022-10-17T16:56:23.323Z,15.22
2022-10-17T16:58:51.974Z,15.19
2022-10-17T17:01:21.477Z,15.16
2022-10-17T17:03:48.530Z,15.12
2022-10-17T17:06:19.197Z,15.09
2022-10-17T17:08:46.932Z,15.06
2022-10-17T17:11:16.227Z,15.04
2022-10-17T17:13:43.058Z,15.02
2022-10-17T17:16:16.438Z,14.98
2022-10-17T17:18:43.770Z,14.93
2022-10-17T17:21:11.450Z,14.90
2022-10-17T17:23:41.347Z,14.86
2022-10-17T17:26:14.796Z,14.82
2022-10-17T17:28:42.726Z,14.79
2022-10-17T17:31:12.414Z,14.76
2022-10-17T17:33:40.754Z,14.74
2022-10-17T17:36:10.880Z,14.71
2022-10-17T17:38:37.944Z,14.69
2022-10-17T17:41:05.351Z,14.68
2022-10-17T17:43:32.355Z,14.65
2022-10-17T17:46:01.931Z,14.63
2022-10-17T17:48:28.827Z,14.60
2022-10-17T17:50:57.128Z,14.58
2022-10-17T17:53:24.984Z,14.54
2022-10-17T17:56:08.163Z,14.51
2022-10-17T17:58:35.643Z,14.45
2022-10-17T18:01:12.186Z,14.41
2022-10-17T18:03:41.434Z,14.38
2022-10-17T18:06:09.465Z,14.33
2022-10-17T18:08:36.848Z,14.30
2022-10-17T18:11:05.015Z,14.27
2022-10-17T18:13:32.970Z,14.25
2022-10-17T18:16:01.922Z,14.21
2022-10-17T18:18:30.987Z,14.17
2022-10-17T18:21:02.900Z,14.13
2022-10-17T18:23:30.409Z,14.09
2022-10-17T18:26:01.645Z,14.04
2022-10-17T18:28:31.667Z,13.99
2022-10-17T18:31:06.216Z,13.93
2022-10-17T18:33:33.931Z,13.88
2022-10-17T18:36:10.402Z,13.84
2022-10-17T18:38:38.125Z,13.80
2022-10-17T18:41:15.502Z,13.77
2022-10-17T18:43:47.849Z,13.73
2022-10-17T18:46:26.746Z,13.70
2022-10-17T18:48:54.604Z,13.65
2022-10-17T18:51:23.922Z,13.61
2022-10-17T18:53:54.976Z,13.58
2022-10-17T18:56:23.450Z,13.53
2022-10-17T19:02:41.837Z,13.39
2022-10-17T19:05:09.157Z,13.35
2022-10-17T19:07:36.558Z,13.32
2022-10-17T19:10:04.140Z,13.27
2022-10-17T19:12:31.058Z,13.22
2022-10-17T19:14:57.756Z,13.18
2022-10-17T19:17:25.311Z,13.15
2022-10-17T19:19:53.555Z,13.11
2022-10-17T19:22:20.316Z,13.07
2022-10-17T19:24:47.345Z,13.05
2022-10-17T19:27:14.327Z,13.01
2022-10-17T19:29:43.798Z,12.96
2022-10-17T19:32:15.732Z,12.92
2022-10-17T19:34:45.100Z,12.87
2022-10-17T19:37:13.143Z,12.83
2022-10-17T19:39:41.824Z,12.80
2022-10-17T19:42:08.606Z,12.75
2022-10-17T19:44:36.274Z,12.70
2022-10-17T19:47:03.234Z,12.66
2022-10-17T19:49:30.401Z,12.63
2022-10-17T19:51:57.265Z,12.59
2022-10-17T19:54:33.275Z,12.55
2022-10-17T19:57:03.177Z,12.51
2022-10-17T19:59:32.861Z,12.47
2022-10-17T20:02:00.270Z,12.43
2022-10-17T20:04:27.721Z,12.38
2022-10-17T20:06:59.873Z,12.34
2022-10-17T20:09:27.133Z,12.30
2022-10-17T20:11:53.931Z,12.26
2022-10-17T20:14:20.990Z,12.22
2022-10-17T20:16:52.641Z,12.19
2022-10-17T20:19:20.546Z,12.16
2022-10-17T20:21:47.652Z,12.13
2022-10-17T20:24:16.805Z,12.11
2022-10-17T20:26:44.642Z,12.07
2022-10-17T20:29:17.992Z,12.05
2022-10-17T20:31:46.457Z,12.01
2022-10-17T20:34:15.882Z,11.97
2022-10-17T20:36:43.022Z,11.93
2022-10-17T20:39:12.263Z,11.88
2022-10-17T20:41:39.076Z,11.85
2022-10-17T20:44:07.101Z,11.81
2022-10-17T20:46:37.235Z,11.78
2022-10-17T20:49:08.644Z,11.73
2022-10-17T20:51:36.137Z,11.68
2022-10-17T20:54:03.571Z,11.65
2022-10-17T20:56:32.129Z,11.61
2022-10-17T20:59:01.360Z,11.58
2022-10-17T21:01:29.542Z,11.55
2022-10-17T21:03:59.627Z,11.53
2022-10-17T21:06:26.880Z,11.51
2022-10-17T21:08:55.802Z,11.48
2022-10-17T21:11:25.830Z,11.45
2022-10-17T21:14:03.167Z,11.45
2022-10-17T21:16:32.890Z,11.42
2022-10-17T21:19:00.277Z,11.40
2022-10-17T21:21:33.940Z,11.36
2022-10-17T21:24:03.754Z,11.33
2022-10-17T21:26:33.294Z,11.30
2022-10-17T21:29:05.680Z,11.29
2022-10-17T21:31:38.158Z,11.27
2022-10-17T21:34:13.561Z,11.24
2022-10-17T21:36:40.761Z,11.21
2022-10-17T21:41:40.074Z,11.14
2022-10-17T21:44:12.287Z,11.11
2022-10-17T21:46:39.022Z,11.08
2022-10-17T21:49:05.827Z,11.04
2022-10-17T21:51:32.613Z,11.02
2022-10-17T21:53:59.388Z,10.99
2022-10-17T21:56:28.871Z,10.98
2022-10-17T21:58:56.849Z,10.97
2022-10-17T22:01:29.309Z,10.95
2022-10-17T22:03:59.345Z,10.93
2022-10-17T22:06:43.739Z,10.91
2022-10-17T22:09:15.938Z,10.86
2022-10-17T22:11:46.104Z,10.83
2022-10-17T22:14:16.320Z,10.80
2022-10-17T22:16:45.416Z,10.77
2022-10-17T22:19:14.289Z,10.73
2022-10-17T22:21:41.138Z,10.71
2022-10-17T22:24:11.225Z,10.68
2022-10-17T22:26:38.230Z,10.67
2022-10-17T22:29:06.973Z,10.64
2022-10-17T22:31:34.626Z,10.62
2022-10-17T22:34:01.310Z,10.59
2022-10-17T22:36:28.181Z,10.56
2022-10-17T22:38:55.188Z,10.51
2022-10-17T22:41:21.857Z,10.49
2022-10-17T22:43:48.542Z,10.46
2022-10-17T22:46:18.664Z,10.44
2022-10-17T22:48:46.187Z,10.42
2022-10-17T22:51:13.704Z,10.40
2022-10-17T22:53:40.679Z,10.38
2022-10-17T22:56:17.089Z,10.35
2022-10-17T22:58:43.913Z,10.32
2022-10-17T23:01:15.706Z,10.27
2022-10-17T23:03:43.314Z,10.23
2022-10-17T23:06:10.622Z,10.18
2022-10-17T23:08:37.925Z,10.15
2022-10-17T23:11:05.675Z,10.11
2022-10-17T23:13:32.627Z,10.08
2022-10-17T23:15:59.301Z,10.07
2022-10-17T23:18:27.230Z,10.05
2022-10-17T23:20:54.056Z,10.03
2022-10-17T23:23:21.450Z,10.01
2022-10-17T23:25:49.065Z,10.00
2022-10-17T23:28:15.758Z,9.97
2022-10-17T23:30:42.587Z,9.93
2022-10-17T23:33:11.454Z,9.91
2022-10-17T23:35:39.119Z,9.89
2022-10-17T23:38:05.855Z,9.85
2022-10-17T23:40:32.658Z,9.83
2022-10-17T23:42:59.354Z,9.83
2022-10-17T23:45:26.072Z,9.83
2022-10-17T23:47:52.887Z,9.83
2022-10-17T23:50:19.545Z,9.82
2022-10-17T23:52:46.289Z,9.81
2022-10-17T23:55:13.071Z,9.79
2022-10-17T23:57:39.850Z,9.83
